Wetterverlauf

Letzte Wetterlage 29.07.2014 20:37
Wetterdiagramm
Tabellarische Darstellung
Datum Temperatur Windchill Feuchte Luftdruck Windrichtung Windstärke Niederschlag
29.07.2014 20:37 25,6 °C 25,6 °C 61 % 1007,9 hPa 0.0 0,00 mm
29.07.2014 20:27 25,7 °C 25,7 °C 59 % 1007,9 hPa 0.0 0,00 mm
29.07.2014 20:17 25,8 °C 25,8 °C 59 % 1007,9 hPa 0.0 0,00 mm
29.07.2014 20:07 25,8 °C 25,8 °C 59 % 1007,9 hPa 0.0 0,00 mm
29.07.2014 19:57 25,8 °C 25,8 °C 59 % 1007,9 hPa 0.0 0,00 mm
29.07.2014 19:47 25,9 °C 25,9 °C 59 % 1008,0 hPa 0.0 0,00 mm
29.07.2014 19:37 26,0 °C 26,0 °C 59 % 1008,0 hPa 0.0 0,00 mm
29.07.2014 19:27 26,0 °C 26,0 °C 59 % 1008,0 hPa 0.0 0,00 mm
29.07.2014 19:17 26,1 °C 26,1 °C 58 % 1008,0 hPa 0.0 0,00 mm
29.07.2014 19:07 26,2 °C 26,2 °C 58 % 1008,1 hPa 0.0 0,00 mm
29.07.2014 18:57 26,3 °C 26,3 °C 57 % 1008,0 hPa 0.0 0,00 mm
29.07.2014 18:47 26,5 °C 26,5 °C 57 % 1008,0 hPa 0.0 0,00 mm
29.07.2014 18:37 26,6 °C 26,6 °C 56 % 1007,9 hPa 0.0 0,00 mm
29.07.2014 18:27 26,7 °C 26,7 °C 56 % 1007,9 hPa 0.0 0,00 mm
29.07.2014 18:17 26,8 °C 26,8 °C 55 % 1008,0 hPa 0.0 0,00 mm
29.07.2014 18:07 27,1 °C 27,1 °C 54 % 1008,1 hPa 0.0 0,00 mm
29.07.2014 17:57 27,4 °C 27,4 °C 54 % 1008,1 hPa 0.0 0,00 mm
29.07.2014 17:47 27,6 °C 27,6 °C 54 % 1008,1 hPa 0.0 0,00 mm
29.07.2014 17:37 27,6 °C 27,6 °C 54 % 1008,1 hPa 0.0 0,00 mm
29.07.2014 17:27 27,7 °C 27,7 °C 54 % 1008,1 hPa 0.0 0,00 mm
29.07.2014 17:17 27,8 °C 27,8 °C 54 % 1008,1 hPa 0.0 0,00 mm
29.07.2014 17:07 27,9 °C 27,9 °C 54 % 1008,1 hPa 0.0 0,00 mm
29.07.2014 16:57 28,0 °C 28,0 °C 54 % 1008,1 hPa 0.0 0,00 mm
29.07.2014 16:47 28,0 °C 28,0 °C 54 % 1008,1 hPa 0.0 0,00 mm
29.07.2014 16:37 28,2 °C 28,2 °C 53 % 1008,1 hPa 0.0 0,00 mm
Empfehlen Sie wetter.com
| Mehr
Neue Wetterwarnung

Neue Niederschlagsmeldung
Neue Meldung
Regen Liveticker
    sehr starker Regen/Gewitter
    starker Regen/Gewitter
    mäßiger bis starker Regen
    mäßiger Regen
    leichter bis mäßiger Regen
    kein Regen